Byron, Illinois
Current Conditions -  °F | °C
As of 10:33 AM on Monday 26 Jan 2015 (Local Time) from KRFD Reporting Station
Light Snow Light Snow  
Wind Chill: 13°   Ceiling: 2500
Heat Index: 22°   Visibility: 1.2mi
Dew Point: 16°   Wind: 7mph
Humidity: 78%   Direction: 170°S
Pressure: 29.93"   Gusts: NA
Location:  42.13°N, 89.26°W
Report Text: KRFD 261633Z 17006KT 1 1/4SM R01/6000VP6000FT -SN BKN025 OVC034 M06/M09 A2993 RMK AO2 TWR VIS 2 SNB1558 P0000 T10561089
Loading
Personal Weather Stations






























Interactive Weather Map New forecast layout! Learn more

10-Day Weather Forecast

Advertisements
Track Severe Weather on mobile